Time;durP1;ratioP1;P1;durP2;ratioP2;P2;SDS_P1;SDS_P2;PMS_P1;PMS_P2;Temp;Humidity;BMP_temperature;BMP_pressure;BME280_temperature;BME280_humidity;BME280_pressure;Samples;Min_cycle;Max_cycle;Signal;HPM_P1;HPM_P2
2021/10/08 00:00:03;;;;;;;;;12.33;10.67;;;;;;;;5059791;28;45382;-74
2021/10/08 00:02:28;;;;;;;;;18.50;12.50;;;;;;;;5058589;28;45631;-75
2021/10/08 00:04:53;;;;;;;;;14.00;11.67;;;;;;;;5055779;27;45673;-75
2021/10/08 00:07:18;;;;;;;;;10.00;10.00;;;;;;;;5048322;28;45930;-74
2021/10/08 00:09:44;;;;;;;;;16.00;14.00;;;;;;;;5046825;28;45685;-75
2021/10/08 00:12:09;;;;;;;;;14.50;12.00;;;;;;;;5053358;28;45733;-74
2021/10/08 00:14:34;;;;;;;;;12.00;11.00;;;;;;;;5058469;28;45465;-76
2021/10/08 00:17:00;;;;;;;;;14.75;12.50;;;;;;;;5058014;28;45557;-75
2021/10/08 00:19:25;;;;;;;;;16.00;14.00;;;;;;;;5053534;28;45810;-75
2021/10/08 00:21:51;;;;;;;;;16.25;12.50;;;;;;;;5067132;27;46023;-75
2021/10/08 00:24:16;;;;;;;;;15.25;13.00;;;;;;;;5049116;28;46180;-75
2021/10/08 00:26:42;;;;;;;;;16.75;14.25;;;;;;;;5065254;28;45652;-75
2021/10/08 00:29:07;;;;;;;;;15.00;14.75;;;;;;;;5054252;27;45596;-75
2021/10/08 00:31:33;;;;;;;;;15.25;15.25;;;;;;;;5047544;28;45920;-74
2021/10/08 00:33:58;;;;;;;;;16.67;13.00;;;;;;;;5051517;28;45701;-74
2021/10/08 00:36:23;;;;;;;;;14.33;11.33;;;;;;;;5068357;28;45819;-74
2021/10/08 00:38:48;;;;;;;;;15.33;13.33;;;;;;;;5056271;27;45826;-74
2021/10/08 00:41:14;;;;;;;;;13.25;13.00;;;;;;;;5055390;28;52378;-74
2021/10/08 00:43:40;;;;;;;;;19.00;11.25;;;;;;;;5045573;28;45520;-75
2021/10/08 00:46:05;;;;;;;;;16.50;13.50;;;;;;;;5047895;28;46346;-74
2021/10/08 00:48:30;;;;;;;;;18.33;13.33;;;;;;;;5055451;28;45946;-75
2021/10/08 00:50:55;;;;;;;;;14.00;13.00;;;;;;;;5061254;28;45713;-75
2021/10/08 00:53:21;;;;;;;;;17.25;12.25;;;;;;;;5060642;28;45694;-75
2021/10/08 00:55:47;;;;;;;;;15.25;12.75;;;;;;;;5057914;27;58153;-74
2021/10/08 00:58:14;;;;;;;;;10.25;10.25;;;;;;;;5047323;28;45548;-76
2021/10/08 01:00:40;;;;;;;;;14.00;11.75;;;;;;;;5047730;28;45640;-74
2021/10/08 01:03:06;;;;;;;;;14.50;10.25;;;;;;;;5053900;28;45689;-74
2021/10/08 01:05:31;;;;;;;;;14.00;10.00;;;;;;;;5064108;28;45645;-76
2021/10/08 01:07:56;;;;;;;;;14.25;11.50;;;;;;;;5057203;28;45848;-74
2021/10/08 01:10:21;;;;;;;;;14.00;10.33;;;;;;;;5062644;28;45640;-75
2021/10/08 01:12:47;;;;;;;;;14.25;12.00;;;;;;;;5052013;27;44907;-74
2021/10/08 01:15:13;;;;;;;;;8.33;8.00;;;;;;;;5065178;28;45640;-75
2021/10/08 01:17:38;;;;;;;;;9.50;9.50;;;;;;;;5053188;28;47212;-75
2021/10/08 01:20:04;;;;;;;;;15.25;11.00;;;;;;;;5055106;28;45576;-74
2021/10/08 01:22:30;;;;;;;;;9.50;9.00;;;;;;;;5048781;28;45552;-74
2021/10/08 01:24:55;;;;;;;;;13.00;10.33;;;;;;;;5052873;28;45533;-75
2021/10/08 01:27:21;;;;;;;;;17.25;13.50;;;;;;;;5067707;28;45536;-74
2021/10/08 01:29:53;;;;;;;;;11.25;10.00;;;;;;;;5057166;28;45371;-75
2021/10/08 01:32:21;;;;;;;;;14.50;9.50;;;;;;;;5056595;28;45591;-74
2021/10/08 01:34:46;;;;;;;;;12.25;11.25;;;;;;;;5055013;28;59212;-75
2021/10/08 01:37:12;;;;;;;;;14.25;11.50;;;;;;;;5057766;28;48359;-75
2021/10/08 01:39:37;;;;;;;;;18.75;13.00;;;;;;;;5062385;28;45545;-74
2021/10/08 01:42:02;;;;;;;;;10.00;9.33;;;;;;;;5054015;28;45554;-75
2021/10/08 01:44:28;;;;;;;;;13.33;13.33;;;;;;;;5050954;28;45895;-74
2021/10/08 01:46:53;;;;;;;;;12.67;9.00;;;;;;;;5052142;27;45663;-74
2021/10/08 01:49:21;;;;;;;;;17.00;8.33;;;;;;;;5052387;28;45824;-77
2021/10/08 01:51:46;;;;;;;;;14.75;10.75;;;;;;;;5054367;28;45506;-75
2021/10/08 01:54:11;;;;;;;;;15.33;11.00;;;;;;;;5065233;28;45641;-75
2021/10/08 01:56:40;;;;;;;;;11.75;10.00;;;;;;;;5050307;28;45413;-74
2021/10/08 01:59:05;;;;;;;;;11.75;8.75;;;;;;;;5055585;28;45592;-74
2021/10/08 02:01:31;;;;;;;;;12.00;9.33;;;;;;;;5051518;28;45574;-74
2021/10/08 02:03:57;;;;;;;;;10.00;10.00;;;;;;;;5042450;28;47279;-75
2021/10/08 02:06:22;;;;;;;;;9.25;9.00;;;;;;;;5056460;28;45996;-75
2021/10/08 02:08:47;;;;;;;;;7.00;7.00;;;;;;;;5059988;28;46159;-75
2021/10/08 02:11:12;;;;;;;;;9.00;8.00;;;;;;;;5054549;28;45683;-74
2021/10/08 02:13:37;;;;;;;;;9.00;8.67;;;;;;;;5057912;28;45776;-75
2021/10/08 02:16:03;;;;;;;;;14.00;10.00;;;;;;;;5047651;28;45581;-75
2021/10/08 02:18:29;;;;;;;;;9.00;8.00;;;;;;;;5051002;28;45431;-75
2021/10/08 02:20:55;;;;;;;;;12.50;11.00;;;;;;;;5066386;28;45552;-74
2021/10/08 02:23:20;;;;;;;;;12.25;9.25;;;;;;;;5060525;28;45656;-74
2021/10/08 02:25:45;;;;;;;;;14.50;8.75;;;;;;;;5055260;28;45509;-75
2021/10/08 02:28:10;;;;;;;;;10.33;9.00;;;;;;;;5054571;28;45564;-75
2021/10/08 02:30:35;;;;;;;;;13.33;11.33;;;;;;;;5053114;28;55356;-74
2021/10/08 02:33:01;;;;;;;;;13.33;9.67;;;;;;;;5053065;28;46148;-75
2021/10/08 02:35:26;;;;;;;;;16.25;11.00;;;;;;;;5055038;27;48098;-75
2021/10/08 02:37:51;;;;;;;;;18.00;11.00;;;;;;;;5045520;27;45802;-75
2021/10/08 02:40:17;;;;;;;;;13.25;10.00;;;;;;;;5050270;28;45490;-73
2021/10/08 02:42:42;;;;;;;;;8.75;8.75;;;;;;;;5041456;28;46364;-75
2021/10/08 02:45:07;;;;;;;;;12.75;9.25;;;;;;;;5062362;28;46028;-75
2021/10/08 02:47:33;;;;;;;;;11.50;11.25;;;;;;;;5050629;28;45507;-74
2021/10/08 02:49:58;;;;;;;;;8.50;8.00;;;;;;;;5058051;28;45825;-74
2021/10/08 02:52:23;;;;;;;;;12.50;12.00;;;;;;;;5063525;28;46168;-74
2021/10/08 02:54:48;;;;;;;;;15.75;10.00;;;;;;;;5055540;27;45697;-75
2021/10/08 02:57:14;;;;;;;;;10.25;9.75;;;;;;;;5047481;28;46058;-75
2021/10/08 02:59:39;;;;;;;;;12.75;8.25;;;;;;;;5043782;28;45770;-74
2021/10/08 03:02:05;;;;;;;;;12.00;11.00;;;;;;;;5058573;28;46642;-75
2021/10/08 03:04:30;;;;;;;;;11.50;8.50;;;;;;;;5059411;28;45678;-74
2021/10/08 03:06:56;;;;;;;;;13.00;10.75;;;;;;;;5049673;28;45443;-75
2021/10/08 03:09:22;;;;;;;;;8.75;8.75;;;;;;;;5050599;28;45616;-74
2021/10/08 03:11:47;;;;;;;;;14.75;9.75;;;;;;;;5052178;27;45726;-75
2021/10/08 03:14:12;;;;;;;;;10.75;8.00;;;;;;;;5048579;28;45519;-74
2021/10/08 03:16:38;;;;;;;;;11.75;11.00;;;;;;;;5046644;28;45615;-74
2021/10/08 03:19:03;;;;;;;;;13.00;9.00;;;;;;;;5046903;28;45855;-75
2021/10/08 03:21:28;;;;;;;;;11.75;11.75;;;;;;;;5040047;28;46892;-75
2021/10/08 03:23:54;;;;;;;;;7.25;7.00;;;;;;;;5049608;28;45608;-75
2021/10/08 03:26:19;;;;;;;;;12.25;11.00;;;;;;;;5052690;28;45505;-75
2021/10/08 03:28:45;;;;;;;;;13.33;10.00;;;;;;;;5057484;28;45664;-74
2021/10/08 03:31:11;;;;;;;;;13.25;12.00;;;;;;;;5049562;28;46345;-75
2021/10/08 03:33:37;;;;;;;;;11.50;8.50;;;;;;;;5046018;28;45771;-75
2021/10/08 03:36:03;;;;;;;;;16.00;13.00;;;;;;;;5052378;28;48370;-73
2021/10/08 03:38:31;;;;;;;;;18.25;10.00;;;;;;;;5047833;27;45791;-74
2021/10/08 03:43:54;;;;;;;;;12.50;10.50;;;;;;;;5033173;28;46267;-74
2021/10/08 03:46:19;;;;;;;;;13.00;13.00;;;;;;;;5050711;27;45554;-74
2021/10/08 03:51:29;;;;;;;;;17.75;13.75;;;;;;;;5059855;28;45641;-76
2021/10/08 03:53:55;;;;;;;;;14.75;12.25;;;;;;;;5064184;28;45605;-75
2021/10/08 03:56:21;;;;;;;;;18.50;11.50;;;;;;;;5051268;28;45473;-75
2021/10/08 03:58:46;;;;;;;;;16.50;12.00;;;;;;;;5050174;28;45628;-75
2021/10/08 04:01:11;;;;;;;;;13.67;13.00;;;;;;;;5045888;28;45675;-74
2021/10/08 04:03:36;;;;;;;;;15.00;12.00;;;;;;;;5062585;27;45721;-74
2021/10/08 04:06:02;;;;;;;;;14.33;13.00;;;;;;;;5052830;28;45608;-74
2021/10/08 04:08:27;;;;;;;;;15.00;9.50;;;;;;;;5061773;28;45517;-75
2021/10/08 04:10:52;;;;;;;;;13.00;10.67;;;;;;;;5048806;28;51651;-74
2021/10/08 04:13:17;;;;;;;;;12.00;10.25;;;;;;;;5046634;28;49100;-74
2021/10/08 04:15:43;;;;;;;;;13.67;13.00;;;;;;;;5064517;28;45687;-75
2021/10/08 04:18:11;;;;;;;;;16.00;12.67;;;;;;;;5053880;28;45520;-74
2021/10/08 04:20:36;;;;;;;;;13.00;11.25;;;;;;;;5043998;28;46691;-74
2021/10/08 04:23:01;;;;;;;;;15.33;10.67;;;;;;;;5044723;28;45706;-74
2021/10/08 04:25:26;;;;;;;;;15.00;12.00;;;;;;;;5036963;28;70620;-75
2021/10/08 04:27:51;;;;;;;;;21.00;14.33;;;;;;;;5046924;28;45725;-74
2021/10/08 04:30:17;;;;;;;;;13.00;13.00;;;;;;;;5048633;28;45593;-75
2021/10/08 04:32:42;;;;;;;;;19.75;15.50;;;;;;;;5057434;28;45559;-74
2021/10/08 04:35:07;;;;;;;;;16.25;11.50;;;;;;;;5051757;28;45773;-75
2021/10/08 04:37:33;;;;;;;;;22.75;14.00;;;;;;;;5053803;27;49186;-75
2021/10/08 04:39:58;;;;;;;;;17.00;14.33;;;;;;;;5055247;28;46332;-75
2021/10/08 04:42:23;;;;;;;;;18.33;13.00;;;;;;;;5049536;28;45891;-74
2021/10/08 04:44:48;;;;;;;;;11.67;11.67;;;;;;;;5054685;28;45421;-75
2021/10/08 04:47:14;;;;;;;;;19.25;13.25;;;;;;;;5054607;28;52907;-75
2021/10/08 04:49:39;;;;;;;;;17.67;14.67;;;;;;;;5050716;28;46089;-75
2021/10/08 04:52:04;;;;;;;;;15.50;12.75;;;;;;;;5062252;28;45659;-75
2021/10/08 04:54:30;;;;;;;;;14.67;13.33;;;;;;;;5060999;27;46181;-75
2021/10/08 04:56:55;;;;;;;;;13.00;12.25;;;;;;;;5060888;28;45726;-75
2021/10/08 04:59:20;;;;;;;;;17.00;14.75;;;;;;;;5051094;28;46148;-75
2021/10/08 05:01:45;;;;;;;;;20.33;17.33;;;;;;;;5025068;28;670459;-75
2021/10/08 05:04:10;;;;;;;;;16.50;13.75;;;;;;;;4983649;27;1734867;-74
2021/10/08 05:06:36;;;;;;;;;17.67;14.67;;;;;;;;5006601;28;1298280;-75
2021/10/08 05:09:01;;;;;;;;;15.67;14.33;;;;;;;;4956862;28;2747739;-75
2021/10/08 05:11:26;;;;;;;;;19.00;17.67;;;;;;;;5046647;28;45451;-73
2021/10/08 05:13:51;;;;;;;;;19.33;17.33;;;;;;;;5050578;28;45928;-73
2021/10/08 05:16:16;;;;;;;;;31.67;14.67;;;;;;;;5049702;28;45818;-75
2021/10/08 05:18:42;;;;;;;;;13.67;13.33;;;;;;;;5051101;28;45681;-73
2021/10/08 05:21:07;;;;;;;;;18.33;15.00;;;;;;;;5031617;28;45497;-74
2021/10/08 05:23:34;;;;;;;;;20.00;15.00;;;;;;;;5053361;28;67108;-73
2021/10/08 05:25:59;;;;;;;;;20.00;15.50;;;;;;;;5052187;28;45620;-74
2021/10/08 05:28:26;;;;;;;;;18.00;14.00;;;;;;;;5042746;28;48209;-74
2021/10/08 05:30:52;;;;;;;;;19.50;15.50;;;;;;;;5058419;28;45926;-74
2021/10/08 05:33:18;;;;;;;;;19.25;15.00;;;;;;;;5050002;28;47789;-75
2021/10/08 05:35:43;;;;;;;;;16.75;15.25;;;;;;;;5052610;28;45621;-73
2021/10/08 05:38:08;;;;;;;;;22.33;13.67;;;;;;;;5056377;28;52300;-75
2021/10/08 05:40:33;;;;;;;;;18.67;16.33;;;;;;;;5055587;28;45590;-74
2021/10/08 05:43:00;;;;;;;;;17.50;15.00;;;;;;;;5048202;28;45387;-74
2021/10/08 05:45:25;;;;;;;;;17.00;14.50;;;;;;;;5055188;27;45351;-74
2021/10/08 05:47:50;;;;;;;;;19.75;15.50;;;;;;;;5061142;28;46226;-75
2021/10/08 05:50:15;;;;;;;;;20.00;13.00;;;;;;;;5050247;28;45530;-75
2021/10/08 05:52:40;;;;;;;;;19.00;15.33;;;;;;;;5056848;28;45471;-75
2021/10/08 05:55:06;;;;;;;;;23.33;15.33;;;;;;;;5047720;28;45486;-74
2021/10/08 05:57:31;;;;;;;;;19.25;13.25;;;;;;;;5058447;28;45390;-74
2021/10/08 05:59:57;;;;;;;;;19.50;13.75;;;;;;;;5059764;27;46255;-74
2021/10/08 06:02:22;;;;;;;;;19.00;17.00;;;;;;;;5062302;28;45586;-74
2021/10/08 06:04:47;;;;;;;;;25.67;17.33;;;;;;;;5063477;28;45484;-74
2021/10/08 06:07:12;;;;;;;;;19.00;16.33;;;;;;;;5053635;28;62432;-74
2021/10/08 06:09:37;;;;;;;;;22.33;16.33;;;;;;;;5045878;28;45811;-75
2021/10/08 06:12:03;;;;;;;;;25.75;19.75;;;;;;;;5052059;28;45453;-74
2021/10/08 06:14:28;;;;;;;;;21.75;17.75;;;;;;;;5058706;28;45539;-75
2021/10/08 06:16:54;;;;;;;;;17.25;17.25;;;;;;;;5058250;28;45756;-75
2021/10/08 06:19:19;;;;;;;;;22.33;19.33;;;;;;;;5047216;27;45715;-76
2021/10/08 06:21:44;;;;;;;;;23.33;15.67;;;;;;;;5050856;28;46070;-75
2021/10/08 06:24:09;;;;;;;;;20.25;17.75;;;;;;;;5053716;28;45842;-74
2021/10/08 06:26:35;;;;;;;;;20.67;17.33;;;;;;;;5053280;28;46188;-75
2021/10/08 06:29:00;;;;;;;;;21.33;19.33;;;;;;;;5047727;28;45707;-75
2021/10/08 06:31:25;;;;;;;;;23.25;18.00;;;;;;;;5050596;28;45588;-75
2021/10/08 06:33:50;;;;;;;;;20.33;16.00;;;;;;;;5050220;28;46058;-75
2021/10/08 06:36:15;;;;;;;;;24.75;22.00;;;;;;;;5052970;27;45517;-76
2021/10/08 06:38:41;;;;;;;;;24.00;19.67;;;;;;;;5060497;28;45559;-76
2021/10/08 06:41:06;;;;;;;;;27.00;20.67;;;;;;;;5056307;28;44923;-75
2021/10/08 06:43:31;;;;;;;;;24.75;18.50;;;;;;;;5049161;28;45845;-75
2021/10/08 06:45:56;;;;;;;;;23.00;20.00;;;;;;;;5065052;27;45446;-75
2021/10/08 06:48:22;;;;;;;;;30.25;21.00;;;;;;;;5045633;28;47195;-75
2021/10/08 06:50:47;;;;;;;;;25.67;19.00;;;;;;;;5059496;28;46307;-75
2021/10/08 06:53:12;;;;;;;;;27.00;18.00;;;;;;;;5045723;27;45688;-75
2021/10/08 06:55:38;;;;;;;;;20.75;18.00;;;;;;;;5050190;28;219236;-76
2021/10/08 06:58:04;;;;;;;;;23.00;20.00;;;;;;;;5042397;28;45632;-75
2021/10/08 07:00:29;;;;;;;;;25.25;18.50;;;;;;;;5041706;28;47161;-75
2021/10/08 07:02:55;;;;;;;;;27.25;19.25;;;;;;;;5051563;28;45566;-75
2021/10/08 07:05:22;;;;;;;;;24.25;20.00;;;;;;;;5054494;28;45545;-75
2021/10/08 07:07:48;;;;;;;;;27.75;19.75;;;;;;;;5054455;28;45641;-75
2021/10/08 07:10:13;;;;;;;;;30.50;26.50;;;;;;;;5053563;27;45539;-76
2021/10/08 07:12:39;;;;;;;;;28.75;20.75;;;;;;;;5055807;27;45682;-76
2021/10/08 07:15:06;;;;;;;;;26.00;22.25;;;;;;;;5051782;28;50468;-76
2021/10/08 07:17:32;;;;;;;;;26.25;16.75;;;;;;;;5067872;28;45587;-77
2021/10/08 07:19:57;;;;;;;;;29.00;20.00;;;;;;;;5042164;28;46494;-76
2021/10/08 07:22:22;;;;;;;;;29.33;24.33;;;;;;;;5056342;28;45651;-76
2021/10/08 07:24:51;;;;;;;;;25.00;20.25;;;;;;;;5057924;28;45630;-76
2021/10/08 07:27:16;;;;;;;;;31.50;23.75;;;;;;;;5069256;27;45529;-76
2021/10/08 07:29:41;;;;;;;;;27.75;23.50;;;;;;;;5070640;28;45535;-76
2021/10/08 07:32:07;;;;;;;;;24.25;16.75;;;;;;;;5066936;28;46847;-76
2021/10/08 07:34:32;;;;;;;;;26.25;22.25;;;;;;;;5067319;28;45403;-76
2021/10/08 07:36:57;;;;;;;;;27.67;19.67;;;;;;;;5065368;28;45426;-76
2021/10/08 07:39:22;;;;;;;;;28.25;22.25;;;;;;;;5066331;27;44789;-75
2021/10/08 07:41:48;;;;;;;;;27.67;21.00;;;;;;;;5075835;28;44946;-76
2021/10/08 07:44:13;;;;;;;;;25.00;19.75;;;;;;;;5065879;28;44986;-76
2021/10/08 07:46:38;;;;;;;;;31.50;21.75;;;;;;;;5048589;28;44976;-76
2021/10/08 07:49:04;;;;;;;;;29.00;21.33;;;;;;;;5072784;28;44790;-76
2021/10/08 07:51:30;;;;;;;;;30.75;21.25;;;;;;;;5065725;28;44918;-76
2021/10/08 07:56:30;;;;;;;;;28.25;21.75;;;;;;;;5723284;22;44643;-75
2021/10/08 07:58:56;;;;;;;;;26.00;24.00;;;;;;;;5091761;27;45516;-76
2021/10/08 08:01:21;;;;;;;;;25.00;21.33;;;;;;;;5089492;27;45443;-76
2021/10/08 08:03:46;;;;;;;;;28.25;23.25;;;;;;;;5089163;27;45438;-76
2021/10/08 08:06:12;;;;;;;;;26.33;24.00;;;;;;;;5099038;27;45342;-75
2021/10/08 08:08:37;;;;;;;;;24.75;21.00;;;;;;;;5091103;27;43072;-75
2021/10/08 08:11:02;;;;;;;;;27.00;23.00;;;;;;;;5094449;27;44940;-76
2021/10/08 08:13:27;;;;;;;;;28.33;23.00;;;;;;;;5098713;27;45582;-76
2021/10/08 08:15:53;;;;;;;;;28.67;20.00;;;;;;;;5086330;27;46059;-76
2021/10/08 08:18:18;;;;;;;;;28.33;24.67;;;;;;;;5091909;27;45575;-76
2021/10/08 08:20:44;;;;;;;;;28.75;24.25;;;;;;;;5096032;27;43175;-76
2021/10/08 08:23:09;;;;;;;;;24.50;21.00;;;;;;;;5085207;27;44881;-75
2021/10/08 08:25:34;;;;;;;;;23.25;20.00;;;;;;;;5080177;27;45523;-75
2021/10/08 08:28:00;;;;;;;;;26.00;21.00;;;;;;;;4868587;27;3736411;-75
2021/10/08 08:30:25;;;;;;;;;22.50;18.50;;;;;;;;5087300;27;45166;-75
2021/10/08 08:32:50;;;;;;;;;29.25;22.00;;;;;;;;5039648;27;540481;-75
2021/10/08 08:35:15;;;;;;;;;29.50;25.50;;;;;;;;5080505;27;75522;-75
2021/10/08 08:37:41;;;;;;;;;29.00;22.00;;;;;;;;5008928;27;1022566;-75
2021/10/08 08:40:08;;;;;;;;;27.00;20.00;;;;;;;;4927495;27;4126130;-75
2021/10/08 08:42:34;;;;;;;;;25.33;21.67;;;;;;;;4879917;27;2911478;-75
2021/10/08 08:44:59;;;;;;;;;26.75;23.25;;;;;;;;5050677;27;567819;-75
2021/10/08 08:47:24;;;;;;;;;26.00;22.00;;;;;;;;5048668;27;594360;-75
2021/10/08 08:49:50;;;;;;;;;25.50;19.50;;;;;;;;4906876;27;2374693;-76
2021/10/08 08:52:16;;;;;;;;;21.00;18.50;;;;;;;;5035295;27;535374;-76
2021/10/08 08:54:42;;;;;;;;;28.50;20.75;;;;;;;;4009592;27;7465187;-76
2021/10/08 08:57:10;;;;;;;;;18.75;17.00;;;;;;;;4913425;27;2021963;-76
2021/10/08 08:59:59;;;;;;;;;2.50;2.50;;;;;;;;3500356;27;24449524;-76
2021/10/08 09:02:25;;;;;;;;;18.00;13.00;;;;;;;;4031576;22;18629107;-77
2021/10/08 09:04:50;;;;;;;;;20.50;16.25;;;;;;;;4868117;27;1870812;-76
2021/10/08 09:07:17;;;;;;;;;17.00;14.50;;;;;;;;3499561;27;9642528;-77
2021/10/08 09:09:43;;;;;;;;;12.50;11.00;;;;;;;;5092786;27;45683;-76
2021/10/08 09:12:10;;;;;;;;;10.00;8.75;;;;;;;;5080217;27;46180;-77
2021/10/08 09:14:57;;;;;;;;;14.00;12.00;;;;;;;;4113509;27;17631627;-77
2021/10/08 09:17:22;;;;;;;;;17.00;13.33;;;;;;;;3196901;27;10401267;-76
2021/10/08 09:20:00;;;;;;;;;18.00;13.25;;;;;;;;4462745;27;6419905;-76
2021/10/08 09:22:26;;;;;;;;;16.00;10.75;;;;;;;;4013108;27;7765546;-76
2021/10/08 09:24:53;;;;;;;;;14.50;11.25;;;;;;;;3204332;27;18191735;-77
2021/10/08 09:27:23;;;;;;;;;13.00;10.00;;;;;;;;3066613;27;12932195;-77
2021/10/08 09:29:50;;;;;;;;;17.00;2.50;;;;;;;;3344676;27;20137109;-76
2021/10/08 09:32:16;;;;;;;;;12.00;10.50;;;;;;;;4188438;27;13813159;-76
2021/10/08 09:34:41;;;;;;;;;10.50;8.00;;;;;;;;4206780;27;6232265;-76
2021/10/08 09:37:09;;;;;;;;;9.50;9.50;;;;;;;;4263980;27;4574859;-76
2021/10/08 09:39:36;;;;;;;;;13.25;8.50;;;;;;;;4404145;27;11967059;-76
2021/10/08 09:42:11;;;;;;;;;3.00;3.00;;;;;;;;3505388;27;16750928;-76
2021/10/08 09:44:45;;;;;;;;;12.00;9.50;;;;;;;;2800311;27;22351454;-77
2021/10/08 09:47:19;;;;;;;;;10.00;6.00;;;;;;;;3870965;27;8005819;-76
2021/10/08 09:49:46;;;;;;;;;5.20;5.20;;;;;;;;2184379;27;23979650;-77
2021/10/08 09:52:17;;;;;;;;;9.00;8.00;;;;;;;;4380130;27;11123212;-77
2021/10/08 09:54:47;;;;;;;;;9.00;9.00;;;;;;;;5078139;27;45521;-77
2021/10/08 09:57:12;;;;;;;;;5.75;5.50;;;;;;;;5091938;27;67066;-77
2021/10/08 09:59:38;;;;;;;;;5.67;4.67;;;;;;;;5082952;27;407035;-77
2021/10/08 10:02:04;;;;;;;;;6.00;5.00;;;;;;;;5077962;27;48385;-76
2021/10/08 10:04:43;;;;;;;;;9.25;9.00;;;;;;;;5079597;27;44873;-77
2021/10/08 10:07:08;;;;;;;;;6.67;5.33;;;;;;;;4575186;27;6340823;-77
2021/10/08 10:09:35;;;;;;;;;4.00;4.00;;;;;;;;4161745;27;12174505;-77
2021/10/08 10:12:03;;;;;;;;;8.00;5.00;;;;;;;;3700057;27;10530475;-77
2021/10/08 10:14:38;;;;;;;;;8.50;7.00;;;;;;;;3040201;27;11643961;-77
2021/10/08 10:17:04;;;;;;;;;8.00;6.33;;;;;;;;3453802;27;7686961;-77
2021/10/08 10:19:30;;;;;;;;;8.33;5.67;;;;;;;;4015972;27;5003372;-76
2021/10/08 10:22:00;;;;;;;;;4.00;4.00;;;;;;;;3556346;27;7301523;-77
2021/10/08 10:24:26;;;;;;;;;4.50;4.50;;;;;;;;4209239;27;8292282;-77
2021/10/08 10:26:53;;;;;;;;;9.00;5.00;;;;;;;;3447865;27;13743531;-76
2021/10/08 10:29:18;;;;;;;;;8.00;5.00;;;;;;;;3883118;27;7782978;-77
2021/10/08 10:31:44;;;;;;;;;5.00;4.00;;;;;;;;3568163;27;13842555;-77
2021/10/08 10:34:09;;;;;;;;;6.25;5.75;;;;;;;;4683427;27;5714376;-77
2021/10/08 10:36:39;;;;;;;;;10.00;9.00;;;;;;;;4244470;27;5961413;-77
2021/10/08 10:39:18;;;;;;;;;7.00;6.00;;;;;;;;3985393;27;3898075;-77
2021/10/08 10:42:13;;;;;;;;;6.60;6.00;;;;;;;;4090902;27;8047006;-77
2021/10/08 10:44:59;;;;;;;;;17.25;14.25;;;;;;;;3845371;27;9509167;-77
2021/10/08 10:47:36;;;;;;;;;4.67;4.67;;;;;;;;4225874;27;4058000;-77
2021/10/08 10:50:09;;;;;;;;;14.67;11.00;;;;;;;;4219563;27;3339209;-76
2021/10/08 10:52:45;;;;;;;;;4.75;4.75;;;;;;;;4859947;27;1535835;-76
2021/10/08 10:55:13;;;;;;;;;5.00;5.00;;;;;;;;4724566;27;7417341;-77
2021/10/08 10:57:38;;;;;;;;;4.00;4.00;;;;;;;;4739016;27;6322146;-76
2021/10/08 11:00:03;;;;;;;;;;;;;;;;;;3314763;27;32324749;-76
2021/10/08 11:02:32;;;;;;;;;7.00;5.00;;;;;;;;3429191;27;22427092;-76
2021/10/08 11:05:19;;;;;;;;;4.25;4.25;;;;;;;;4242201;27;5230163;-77
2021/10/08 11:08:03;;;;;;;;;1.00;1.00;;;;;;;;2441090;27;31109316;-77
2021/10/08 11:10:28;;;;;;;;;4.75;3.00;;;;;;;;4197027;27;6108585;-77
2021/10/08 11:13:13;;;;;;;;;6.67;5.00;;;;;;;;4341141;27;4733722;-76
2021/10/08 11:15:54;;;;;;;;;5.50;4.00;;;;;;;;3416408;27;9425668;-77
2021/10/08 11:18:38;;;;;;;;;4.67;3.67;;;;;;;;2589498;27;18996941;-76
2021/10/08 11:21:12;;;;;;;;;5.00;5.00;;;;;;;;3644998;27;7003266;-78
2021/10/08 11:23:40;;;;;;;;;3.50;3.50;;;;;;;;1820852;27;35604387;-76
2021/10/08 11:26:10;;;;;;;;;13.75;10.75;;;;;;;;4321679;27;13145280;-76
2021/10/08 11:28:37;;;;;;;;;14.25;14.00;;;;;;;;4273155;27;14501778;-76
2021/10/08 11:31:03;;;;;;;;;16.50;11.75;;;;;;;;5089527;27;44938;-77
2021/10/08 11:33:43;;;;;;;;;12.00;9.50;;;;;;;;5095504;27;44866;-77
2021/10/08 11:36:11;;;;;;;;;6.00;5.50;;;;;;;;4773855;27;8926987;-76
2021/10/08 11:38:36;;;;;;;;;5.75;4.75;;;;;;;;5101501;27;45528;-78
2021/10/08 11:41:12;;;;;;;;;2.25;2.25;;;;;;;;5007469;27;2600501;-76
2021/10/08 11:43:37;;;;;;;;;4.00;3.00;;;;;;;;4741306;27;4357711;-75
2021/10/08 11:46:17;;;;;;;;;7.60;5.60;;;;;;;;4167352;27;7655204;-77
2021/10/08 11:48:51;;;;;;;;;5.50;4.00;;;;;;;;4771212;27;5600796;-76
2021/10/08 11:51:17;;;;;;;;;2.75;2.50;;;;;;;;5002017;27;885422;-76
2021/10/08 11:53:44;;;;;;;;;2.00;2.00;;;;;;;;4158501;27;4793857;-75
2021/10/08 11:56:12;;;;;;;;;4.75;4.75;;;;;;;;4425421;27;5728308;-76
2021/10/08 11:58:38;;;;;;;;;5.00;3.25;;;;;;;;3863756;27;10033352;-76
2021/10/08 12:01:03;;;;;;;;;8.00;3.00;;;;;;;;3474404;27;21621308;-76
2021/10/08 12:03:38;;;;;;;;;3.75;3.75;;;;;;;;3922534;27;10154435;-76
2021/10/08 12:06:05;;;;;;;;;3.50;3.50;;;;;;;;5098270;27;59640;-76
2021/10/08 12:08:31;;;;;;;;;3.50;3.00;;;;;;;;4495601;27;4970946;-76
2021/10/08 12:11:02;;;;;;;;;3.50;3.00;;;;;;;;4813415;27;8861916;-77
2021/10/08 12:13:34;;;;;;;;;2.50;2.50;;;;;;;;1990568;27;15766706;-76
2021/10/08 12:16:37;;;;;;;;;6.75;4.00;;;;;;;;2818201;27;20031127;-76
2021/10/08 12:19:28;;;;;;;;;2.00;2.00;;;;;;;;1260247;27;31492878;-75
2021/10/08 12:21:53;;;;;;;;;5.50;5.00;;;;;;;;1607005;27;29513350;-76
2021/10/08 12:24:20;;;;;;;;;5.00;3.50;;;;;;;;1251208;27;47143999;-76
2021/10/08 12:27:06;;;;;;;;;;;;;;;;;;585839;27;93722716;-76
2021/10/08 12:30:55;;;;;;;;;7.00;7.00;;;;;;;;2788732;27;79059436;-75
2021/10/08 12:33:36;;;;;;;;;3.00;3.00;;;;;;;;1460501;27;42813927;-76
2021/10/08 12:36:16;;;;;;;;;3.00;3.00;;;;;;;;1586045;27;32306586;-76
2021/10/08 12:39:38;;;;;;;;;;;;;;;;;;1204617;27;76467160;-76
2021/10/08 12:46:01;;;;;;;;;1.00;1.00;;;;;;;;2;190392136;190392136;-76
2021/10/08 12:48:28;;;;;;;;;4.00;4.00;;;;;;;;662655;27;126030080;-76
2021/10/08 12:55:43;;;;;;;;;;;;;;;;;;2;250879258;250879258;-77
2021/10/08 13:01:24;;;;;;;;;4.00;4.00;;;;;;;;2;182481991;182481991;-76
2021/10/08 13:09:09;;;;;;;;;3.50;3.50;;;;;;;;3;126754439;138752501;-76
2021/10/08 13:14:49;;;;;;;;;;;;;;;;;;2;196926164;196926164;-76
2021/10/08 13:23:34;;;;;;;;;10.00;1.00;;;;;;;;3;138709548;174454892;-75
2021/10/08 13:29:43;;;;;;;;;;;;;;;;;;2;166623537;166623537;-74
2021/10/08 13:32:59;;;;;;;;;0.50;0.50;;;;;;;;2;195617437;195617437;-75
2021/10/08 13:35:24;;;;;;;;;4.00;4.00;;;;;;;;3621951;28;13219461;-75
2021/10/08 13:37:50;;;;;;;;;4.75;4.75;;;;;;;;5027068;28;16895;-75
2021/10/08 13:40:15;;;;;;;;;3.00;3.00;;;;;;;;5016453;28;12983;-74
2021/10/08 13:42:41;;;;;;;;;3.00;3.00;;;;;;;;5016323;28;18153;-74
2021/10/08 13:45:07;;;;;;;;;5.00;5.00;;;;;;;;5021465;28;8818;-75
2021/10/08 13:47:33;;;;;;;;;5.00;4.00;;;;;;;;5018096;28;13666;-74
2021/10/08 13:49:58;;;;;;;;;5.00;4.33;;;;;;;;5022933;28;14571;-76
2021/10/08 13:52:23;;;;;;;;;5.00;4.75;;;;;;;;5020950;28;11831;-75
2021/10/08 13:54:48;;;;;;;;;4.50;3.25;;;;;;;;5011974;28;12143;-75
2021/10/08 13:57:14;;;;;;;;;15.67;7.33;;;;;;;;5021128;28;8801;-76
2021/10/08 13:59:39;;;;;;;;;4.67;4.00;;;;;;;;5018391;28;11459;-75
2021/10/08 14:03:17;;;;;;;;;4.00;4.00;;;;;;;;5017789;28;14313;-76
2021/10/08 14:10:18;;;;;;;;;2.75;2.75;;;;;;;;5015423;28;9194;-76
2021/10/08 14:12:50;;;;;;;;;15.00;9.25;;;;;;;;5017129;28;8776;-76
2021/10/08 14:15:16;;;;;;;;;4.50;4.50;;;;;;;;5020395;28;8836;-75
2021/10/08 14:17:41;;;;;;;;;8.50;6.00;;;;;;;;5019385;28;9199;-76
2021/10/08 14:20:07;;;;;;;;;5.00;5.00;;;;;;;;5024234;28;9641;-75
2021/10/08 14:22:33;;;;;;;;;5.75;4.75;;;;;;;;5016591;28;11411;-75
2021/10/08 14:24:58;;;;;;;;;3.25;3.25;;;;;;;;5000132;28;13491;-75
2021/10/08 14:27:24;;;;;;;;;4.50;4.00;;;;;;;;5018681;28;13905;-76
2021/10/08 14:29:49;;;;;;;;;4.00;4.00;;;;;;;;5006034;28;9321;-75
2021/10/08 14:32:14;;;;;;;;;3.00;3.00;;;;;;;;5005916;28;13323;-76
2021/10/08 14:34:39;;;;;;;;;5.67;5.67;;;;;;;;5020186;28;12664;-75
2021/10/08 14:37:04;;;;;;;;;3.00;3.00;;;;;;;;5019561;28;13644;-76
2021/10/08 14:39:30;;;;;;;;;4.25;4.00;;;;;;;;5013335;28;17485;-75
2021/10/08 14:41:55;;;;;;;;;5.25;4.00;;;;;;;;5013894;28;9381;-76
2021/10/08 14:44:20;;;;;;;;;6.75;6.00;;;;;;;;5018255;28;9495;-76
2021/10/08 14:46:45;;;;;;;;;6.00;4.25;;;;;;;;5017281;28;17080;-76
2021/10/08 14:49:11;;;;;;;;;3.00;3.00;;;;;;;;5020785;28;11329;-76
2021/10/08 14:51:42;;;;;;;;;5.50;4.00;;;;;;;;5021171;28;9891;-74
2021/10/08 14:59:36;;;;;;;;;4.00;4.00;;;;;;;;4966922;28;8811;-74
2021/10/08 15:02:02;;;;;;;;;4.25;4.25;;;;;;;;4969316;28;12852;-75
2021/10/08 15:04:27;;;;;;;;;0.00;0.00;;;;;;;;4971486;28;9503;-74
2021/10/08 15:06:52;;;;;;;;;5.00;4.75;;;;;;;;4964103;28;14555;-74
2021/10/08 15:09:19;;;;;;;;;7.33;5.00;;;;;;;;4952737;28;8944;-75